createdAt,value
2019-04-07T00:01:51.579Z,21.00
2019-04-07T00:04:21.783Z,21.30
2019-04-07T00:06:52.112Z,19.43
2019-04-07T00:09:22.341Z,18.33
2019-04-07T00:11:52.213Z,19.60
2019-04-07T00:14:22.126Z,19.70
2019-04-07T00:16:52.334Z,21.20
2019-04-07T00:19:23.167Z,16.10
2019-04-07T00:21:53.906Z,18.10
2019-04-07T00:24:24.637Z,20.83
2019-04-07T00:26:54.838Z,18.83
2019-04-07T00:29:24.754Z,18.57
2019-04-07T00:31:55.703Z,15.40
2019-04-07T00:34:25.671Z,16.73
2019-04-07T00:36:55.770Z,16.87
2019-04-07T00:39:25.944Z,15.10
2019-04-07T00:41:56.587Z,16.53
2019-04-07T00:44:26.885Z,18.57
2019-04-07T00:46:56.799Z,19.13
2019-04-07T00:49:26.951Z,18.30
2019-04-07T00:51:58.455Z,15.43
2019-04-07T00:54:28.408Z,12.70
2019-04-07T00:56:59.325Z,12.60
2019-04-07T00:59:29.711Z,12.87
2019-04-07T01:02:00.341Z,13.00
2019-04-07T01:04:30.699Z,12.53
2019-04-07T01:07:00.632Z,11.40
2019-04-07T01:09:31.066Z,11.67
2019-04-07T01:12:01.247Z,11.30
2019-04-07T01:14:31.466Z,11.57
2019-04-07T01:17:01.465Z,11.87
2019-04-07T01:19:31.866Z,9.70
2019-04-07T01:22:02.379Z,9.23
2019-04-07T01:24:33.049Z,9.73
2019-04-07T01:27:03.898Z,10.53
2019-04-07T01:29:34.217Z,11.83
2019-04-07T01:32:04.854Z,12.83
2019-04-07T01:34:35.181Z,13.53
2019-04-07T01:37:05.639Z,13.13
2019-04-07T01:39:35.514Z,12.17
2019-04-07T01:42:06.893Z,11.97
2019-04-07T01:44:47.338Z,11.90
2019-04-07T01:47:25.016Z,12.77
2019-04-07T01:50:03.090Z,13.20
2019-04-07T01:52:34.951Z,13.03
2019-04-07T01:55:14.639Z,12.97
2019-04-07T01:57:49.721Z,13.33
2019-04-07T02:00:24.924Z,13.30
2019-04-07T02:02:56.789Z,17.70
2019-04-07T02:05:31.432Z,26.17
2019-04-07T02:08:12.013Z,22.83
2019-04-07T02:10:46.976Z,19.33
2019-04-07T02:13:18.760Z,15.97
2019-04-07T02:15:50.377Z,18.07
2019-04-07T02:18:37.984Z,13.97
2019-04-07T02:21:09.714Z,14.97
2019-04-07T02:23:50.396Z,14.87
2019-04-07T02:26:22.377Z,15.17
2019-04-07T02:29:10.179Z,14.87
2019-04-07T02:31:42.272Z,12.90
2019-04-07T02:34:30.354Z,12.13
2019-04-07T02:37:14.282Z,13.53
2019-04-07T02:39:48.829Z,14.03
2019-04-07T02:42:23.488Z,16.63
2019-04-07T02:44:57.727Z,12.03
2019-04-07T02:47:41.827Z,12.53
2019-04-07T02:50:30.215Z,12.43
2019-04-07T02:53:05.599Z,12.33
2019-04-07T02:55:40.772Z,15.03
2019-04-07T02:58:25.452Z,18.30
2019-04-07T03:01:13.823Z,15.30
2019-04-07T03:04:02.961Z,14.90
2019-04-07T03:06:53.540Z,16.23
2019-04-07T03:09:32.263Z,18.67
2019-04-07T03:12:23.471Z,17.73
2019-04-07T03:15:04.553Z,18.17
2019-04-07T03:17:51.933Z,18.10
2019-04-07T03:20:25.041Z,19.90
2019-04-07T03:23:12.963Z,17.07
2019-04-07T03:25:48.536Z,18.17
2019-04-07T03:28:33.034Z,33.37
2019-04-07T03:31:15.330Z,39.13
2019-04-07T03:33:54.416Z,26.93
2019-04-07T03:37:01.435Z,20.27
2019-04-07T03:39:25.056Z,30.30
2019-04-07T03:42:09.126Z,35.67
2019-04-07T03:44:41.019Z,26.67
2019-04-07T03:47:12.785Z,21.67
2019-04-07T03:49:53.611Z,20.63
2019-04-07T03:52:28.747Z,21.07
2019-04-07T03:55:03.271Z,20.60
2019-04-07T03:57:37.213Z,18.40
2019-04-07T04:00:14.990Z,18.87
2019-04-07T04:02:52.687Z,20.77
2019-04-07T04:05:27.354Z,18.77
2019-04-07T04:07:59.040Z,18.30
2019-04-07T04:10:39.417Z,16.30
2019-04-07T04:13:20.222Z,18.77
2019-04-07T04:15:51.735Z,18.10
2019-04-07T04:18:22.544Z,19.50
2019-04-07T04:20:52.857Z,19.23
2019-04-07T04:23:23.278Z,18.77
2019-04-07T04:25:53.738Z,18.30
2019-04-07T04:28:24.261Z,16.67
2019-04-07T04:30:54.355Z,18.33
2019-04-07T04:33:24.386Z,17.83
2019-04-07T04:35:54.582Z,16.73
2019-04-07T04:38:24.493Z,16.37
2019-04-07T04:40:54.402Z,15.33
2019-04-07T04:43:24.333Z,15.07
2019-04-07T04:45:54.683Z,15.60
2019-04-07T04:48:25.863Z,14.50
2019-04-07T04:50:56.150Z,14.77
2019-04-07T04:53:26.873Z,14.50
2019-04-07T04:55:57.693Z,14.50
2019-04-07T04:58:28.844Z,14.83
2019-04-07T05:00:59.509Z,15.50
2019-04-07T05:03:29.423Z,14.93
2019-04-07T05:05:59.632Z,14.67
2019-04-07T05:08:29.821Z,14.67
2019-04-07T05:11:00.051Z,16.63
2019-04-07T05:13:30.606Z,15.60
2019-04-07T05:16:00.763Z,15.00
2019-04-07T05:18:30.870Z,14.60
2019-04-07T05:21:00.784Z,14.20
2019-04-07T05:23:31.747Z,14.67
2019-04-07T05:26:01.893Z,14.23
2019-04-07T05:28:36.768Z,15.07
2019-04-07T05:31:04.586Z,14.53
2019-04-07T05:33:34.573Z,14.73
2019-04-07T05:36:05.100Z,14.70
2019-04-07T05:38:35.697Z,15.37
2019-04-07T05:41:05.696Z,14.80
2019-04-07T05:43:35.824Z,15.30
2019-04-07T05:46:08.006Z,16.53
2019-04-07T05:48:38.323Z,14.93
2019-04-07T05:51:08.800Z,16.00
2019-04-07T05:53:39.895Z,15.60
2019-04-07T05:56:11.176Z,16.50
2019-04-07T05:58:42.633Z,16.40
2019-04-07T06:01:12.914Z,17.53
2019-04-07T06:03:43.666Z,16.60
2019-04-07T06:06:14.836Z,17.50
2019-04-07T06:08:48.327Z,19.73
2019-04-07T06:11:17.340Z,17.27
2019-04-07T06:13:48.728Z,17.37
2019-04-07T06:16:20.952Z,19.37
2019-04-07T06:18:51.120Z,15.07
2019-04-07T06:21:21.220Z,16.33
2019-04-07T06:23:55.395Z,14.80
2019-04-07T06:26:23.799Z,15.17
2019-04-07T06:28:58.074Z,13.37
2019-04-07T06:31:26.350Z,13.80
2019-04-07T06:33:57.925Z,14.00
2019-04-07T06:36:28.723Z,14.43
2019-04-07T06:38:59.391Z,14.77
2019-04-07T06:41:31.157Z,25.07
2019-04-07T06:44:10.112Z,23.47
2019-04-07T06:46:37.894Z,20.40
2019-04-07T06:49:11.706Z,16.53
2019-04-07T06:51:49.009Z,17.87
2019-04-07T06:54:35.611Z,14.47
2019-04-07T06:57:19.447Z,14.43
2019-04-07T06:59:54.017Z,13.67
2019-04-07T07:02:34.645Z,20.57
2019-04-07T07:05:12.655Z,17.17
2019-04-07T07:07:48.228Z,16.53
2019-04-07T07:10:34.787Z,12.83
2019-04-07T07:13:09.428Z,9.80
2019-04-07T07:15:44.916Z,8.93
2019-04-07T07:18:20.080Z,8.63
2019-04-07T07:21:03.877Z,6.60
2019-04-07T07:23:36.399Z,6.40
2019-04-07T07:26:08.119Z,6.33
2019-04-07T07:28:39.087Z,7.17
2019-04-07T07:31:10.082Z,10.87
2019-04-07T07:33:42.163Z,14.77
2019-04-07T07:36:12.249Z,14.77
2019-04-07T07:38:54.510Z,17.23
2019-04-07T07:41:17.206Z,17.47
2019-04-07T07:43:47.009Z,19.17
2019-04-07T07:46:20.402Z,15.40
2019-04-07T07:48:48.685Z,17.63
2019-04-07T07:51:18.893Z,10.67
2019-04-07T07:53:48.805Z,9.27
2019-04-07T07:56:18.915Z,10.13
2019-04-07T07:58:49.324Z,9.53
2019-04-07T08:01:19.527Z,9.33
2019-04-07T08:03:52.989Z,11.37
2019-04-07T08:06:23.055Z,11.43
2019-04-07T08:08:53.686Z,9.93
2019-04-07T08:11:24.097Z,10.10
2019-04-07T08:13:55.298Z,9.83
2019-04-07T08:16:29.358Z,10.80
2019-04-07T08:18:59.233Z,9.73
2019-04-07T08:21:29.123Z,9.57
2019-04-07T08:23:59.123Z,11.10
2019-04-07T08:26:29.936Z,8.80
2019-04-07T08:29:00.133Z,8.77
2019-04-07T08:31:30.421Z,9.83
2019-04-07T08:34:01.533Z,9.90
2019-04-07T08:36:32.657Z,8.13
2019-04-07T08:39:02.784Z,11.83
2019-04-07T08:41:33.458Z,9.63
2019-04-07T08:44:03.399Z,8.90
2019-04-07T08:46:39.714Z,8.70
2019-04-07T08:49:06.554Z,10.27
2019-04-07T08:51:36.536Z,10.17
2019-04-07T08:54:07.194Z,10.20
2019-04-07T08:56:37.678Z,9.20
2019-04-07T08:59:10.235Z,9.23
2019-04-07T09:01:39.275Z,12.80
2019-04-07T09:04:09.479Z,12.07
2019-04-07T09:06:39.679Z,9.67
2019-04-07T09:09:10.043Z,23.60
2019-04-07T09:11:41.595Z,13.30
2019-04-07T09:14:14.599Z,10.07
2019-04-07T09:17:02.303Z,9.33
2019-04-07T09:19:49.641Z,10.97
2019-04-07T09:22:34.774Z,10.20
2019-04-07T09:25:09.607Z,11.17
2019-04-07T09:27:49.513Z,9.40
2019-04-07T09:30:22.300Z,7.20
2019-04-07T09:32:53.669Z,8.87
2019-04-07T09:35:42.463Z,8.93
2019-04-07T09:38:14.379Z,7.90
2019-04-07T09:41:01.702Z,7.33
2019-04-07T09:43:50.735Z,8.23
2019-04-07T09:46:22.962Z,10.00
2019-04-07T09:48:58.707Z,36.47
2019-04-07T09:51:46.187Z,6.93
2019-04-07T09:54:28.301Z,14.17
2019-04-07T09:57:15.611Z,12.23
2019-04-07T09:59:50.874Z,6.90
2019-04-07T10:02:39.405Z,6.43
2019-04-07T10:05:11.896Z,5.57
2019-04-07T10:08:02.232Z,6.50
2019-04-07T10:10:40.328Z,5.17
2019-04-07T10:13:21.741Z,5.53
2019-04-07T10:15:56.385Z,5.57
2019-04-07T10:18:34.039Z,6.20
2019-04-07T10:21:06.593Z,5.70
2019-04-07T10:23:38.717Z,3.53
2019-04-07T10:26:27.000Z,4.53
2019-04-07T10:29:01.812Z,3.90
2019-04-07T10:31:33.840Z,7.13
2019-04-07T10:34:18.262Z,3.30
2019-04-07T10:36:52.992Z,4.23
2019-04-07T10:39:30.967Z,4.23
2019-04-07T10:42:05.462Z,4.23
2019-04-07T10:44:40.245Z,5.57
2019-04-07T10:47:14.768Z,3.33
2019-04-07T10:50:01.516Z,3.63
2019-04-07T10:52:28.846Z,3.17
2019-04-07T10:55:16.670Z,2.33
2019-04-07T10:57:54.817Z,2.30
2019-04-07T11:00:32.538Z,2.83
2019-04-07T11:03:16.403Z,2.77
2019-04-07T11:06:07.246Z,6.00
2019-04-07T11:08:54.048Z,7.90
2019-04-07T11:11:28.583Z,8.07
2019-04-07T11:14:06.845Z,4.80
2019-04-07T11:16:54.960Z,3.70
2019-04-07T11:19:29.517Z,5.47
2019-04-07T11:22:19.878Z,2.80
2019-04-07T11:25:01.101Z,3.80
2019-04-07T11:27:42.379Z,1.90
2019-04-07T11:30:23.502Z,1.67
2019-04-07T11:32:55.084Z,1.83
2019-04-07T11:35:30.779Z,1.87
2019-04-07T11:38:09.238Z,2.90
2019-04-07T11:40:49.606Z,2.30
2019-04-07T11:43:20.990Z,4.17
2019-04-07T11:46:02.846Z,3.83
2019-04-07T11:48:41.608Z,3.10
2019-04-07T11:51:19.523Z,3.17
2019-04-07T11:54:09.704Z,1.30
2019-04-07T11:56:41.608Z,1.03
2019-04-07T11:59:25.346Z,2.90
2019-04-07T12:02:09.121Z,2.60
2019-04-07T12:04:43.692Z,3.20
2019-04-07T12:07:27.440Z,2.27
2019-04-07T12:10:08.334Z,1.77
2019-04-07T12:12:52.678Z,2.93
2019-04-07T12:15:26.676Z,2.03
2019-04-07T12:18:11.759Z,2.80
2019-04-07T12:20:46.200Z,4.37
2019-04-07T12:23:34.348Z,1.97
2019-04-07T12:26:21.364Z,3.00
2019-04-07T12:28:56.094Z,2.40
2019-04-07T12:31:34.771Z,1.10
2019-04-07T12:34:09.455Z,1.30
2019-04-07T12:36:40.882Z,3.10
2019-04-07T12:39:19.079Z,1.33
2019-04-07T12:42:07.103Z,1.27
2019-04-07T12:44:45.255Z,1.27
2019-04-07T12:47:17.110Z,1.57
2019-04-07T12:49:49.008Z,2.73
2019-04-07T12:52:33.405Z,1.30
2019-04-07T12:55:17.831Z,1.00
2019-04-07T12:57:54.406Z,1.73
2019-04-07T13:00:52.303Z,1.37
2019-04-07T13:03:21.160Z,2.07
2019-04-07T13:05:59.238Z,1.27
2019-04-07T13:08:34.903Z,1.77
2019-04-07T13:11:11.217Z,1.30
2019-04-07T13:13:42.749Z,1.63
2019-04-07T13:16:24.970Z,1.40
2019-04-07T13:18:56.701Z,1.83
2019-04-07T13:21:34.498Z,1.17
2019-04-07T13:24:12.668Z,1.43
2019-04-07T13:26:48.834Z,3.27
2019-04-07T13:29:23.748Z,11.47
2019-04-07T13:32:12.188Z,2.40
2019-04-07T13:34:59.319Z,1.83
2019-04-07T13:37:41.618Z,1.40
2019-04-07T13:40:32.811Z,1.30
2019-04-07T13:43:21.146Z,2.87
2019-04-07T13:45:59.030Z,1.73
2019-04-07T13:48:36.707Z,1.73
2019-04-07T13:51:23.695Z,2.23
2019-04-07T13:54:12.377Z,3.00
2019-04-07T13:56:52.190Z,9.40
2019-04-07T13:59:27.268Z,9.50
2019-04-07T14:02:05.351Z,10.70
2019-04-07T14:04:46.783Z,4.00
2019-04-07T14:07:19.723Z,3.40
2019-04-07T14:10:01.428Z,6.67
2019-04-07T14:12:33.396Z,5.07
2019-04-07T14:15:10.509Z,7.63
2019-04-07T14:17:45.075Z,7.70
2019-04-07T14:20:21.529Z,20.30
2019-04-07T14:22:53.433Z,22.13
2019-04-07T14:25:25.627Z,16.20
2019-04-07T14:28:00.327Z,4.33
2019-04-07T14:30:44.463Z,7.03
2019-04-07T14:33:16.615Z,6.00
2019-04-07T14:35:48.901Z,4.80
2019-04-07T14:38:23.975Z,6.07
2019-04-07T14:40:56.512Z,8.27
2019-04-07T14:43:28.610Z,6.67
2019-04-07T14:46:04.399Z,6.50
2019-04-07T14:48:45.134Z,5.43
2019-04-07T14:51:32.951Z,4.80
2019-04-07T14:54:04.635Z,3.93
2019-04-07T14:56:43.216Z,6.60
2019-04-07T14:59:31.468Z,7.93
2019-04-07T15:02:02.062Z,7.60
2019-04-07T15:04:49.084Z,4.00
2019-04-07T15:07:21.575Z,3.07
2019-04-07T15:09:53.529Z,2.00
2019-04-07T15:12:26.623Z,2.20
2019-04-07T15:14:57.068Z,1.80
2019-04-07T15:17:27.263Z,1.70
2019-04-07T15:19:57.245Z,1.30
2019-04-07T15:22:29.927Z,2.20
2019-04-07T15:25:00.122Z,1.60
2019-04-07T15:27:30.230Z,3.07
2019-04-07T15:30:00.744Z,3.00
2019-04-07T15:32:31.341Z,4.30
2019-04-07T15:35:02.329Z,4.97
2019-04-07T15:37:33.602Z,3.20
2019-04-07T15:40:06.058Z,1.70
2019-04-07T15:42:42.794Z,2.43
2019-04-07T15:45:12.033Z,1.40
2019-04-07T15:47:42.493Z,1.07
2019-04-07T15:50:13.863Z,1.20
2019-04-07T15:52:46.056Z,1.77
2019-04-07T15:55:15.596Z,1.10
2019-04-07T15:57:45.509Z,1.20
2019-04-07T16:00:16.896Z,1.80
2019-04-07T16:02:49.302Z,0.93
2019-04-07T16:05:18.793Z,1.43
2019-04-07T16:07:51.303Z,1.90
2019-04-07T16:10:22.830Z,2.93
2019-04-07T16:12:54.360Z,2.90
2019-04-07T16:15:25.076Z,2.30
2019-04-07T16:17:55.610Z,1.80
2019-04-07T16:20:31.541Z,1.77
2019-04-07T16:22:57.567Z,1.97
2019-04-07T16:25:29.001Z,1.50
2019-04-07T16:27:59.510Z,1.43
2019-04-07T16:30:30.448Z,1.00
2019-04-07T16:33:03.813Z,1.50
2019-04-07T16:35:32.440Z,1.70
2019-04-07T16:38:02.933Z,2.40
2019-04-07T16:40:33.898Z,0.70
2019-04-07T16:43:11.641Z,2.80
2019-04-07T16:45:36.734Z,3.50
2019-04-07T16:48:07.762Z,1.33
2019-04-07T16:50:38.217Z,0.80
2019-04-07T16:53:09.231Z,1.87
2019-04-07T16:55:46.586Z,1.80
2019-04-07T16:58:15.863Z,3.80
2019-04-07T17:00:47.376Z,1.70
2019-04-07T17:03:17.861Z,2.57
2019-04-07T17:05:47.870Z,2.27
2019-04-07T17:08:21.117Z,1.20
2019-04-07T17:10:50.702Z,1.00
2019-04-07T17:13:31.461Z,2.00
2019-04-07T17:15:53.233Z,2.30
2019-04-07T17:18:44.088Z,2.00
2019-04-07T17:21:18.335Z,2.07
2019-04-07T17:23:53.180Z,1.43
2019-04-07T17:26:23.547Z,2.27
2019-04-07T17:28:53.114Z,2.20
2019-04-07T17:31:24.046Z,2.93
2019-04-07T17:33:54.079Z,3.20
2019-04-07T17:36:25.237Z,3.87
2019-04-07T17:39:09.765Z,2.77
2019-04-07T17:41:40.135Z,2.00
2019-04-07T17:44:28.626Z,2.30
2019-04-07T17:47:06.603Z,2.57
2019-04-07T17:49:41.008Z,3.63
2019-04-07T17:52:31.607Z,3.47
2019-04-07T17:55:15.509Z,2.20
2019-04-07T17:58:07.219Z,3.33
2019-04-07T18:00:37.399Z,2.53
2019-04-07T18:03:21.592Z,1.87
2019-04-07T18:06:10.058Z,2.30
2019-04-07T18:08:48.584Z,2.97
2019-04-07T18:11:35.302Z,3.43
2019-04-07T18:14:11.516Z,6.63
2019-04-07T18:17:00.314Z,11.93
2019-04-07T18:19:35.253Z,17.40
2019-04-07T18:22:10.635Z,12.20
2019-04-07T18:24:51.311Z,6.87
2019-04-07T18:27:25.963Z,4.97
2019-04-07T18:30:00.738Z,6.27
2019-04-07T18:32:46.797Z,6.90
2019-04-07T18:35:30.790Z,6.47
2019-04-07T18:38:19.504Z,9.03
2019-04-07T18:41:10.474Z,9.00
2019-04-07T18:43:49.845Z,23.00
2019-04-07T18:46:28.447Z,29.93
2019-04-07T18:49:03.267Z,34.50
2019-04-07T18:51:47.238Z,18.83
2019-04-07T18:54:15.981Z,15.00
2019-04-07T18:56:48.055Z,14.90
2019-04-07T18:59:25.859Z,25.33
2019-04-07T19:02:04.389Z,15.60
2019-04-07T19:04:42.079Z,5.60
2019-04-07T19:07:16.702Z,6.77
2019-04-07T19:10:10.517Z,10.57
2019-04-07T19:13:01.945Z,8.77
2019-04-07T19:15:27.620Z,12.83
2019-04-07T19:18:05.899Z,6.80
2019-04-07T19:20:53.549Z,16.43
2019-04-07T19:23:41.515Z,12.27
2019-04-07T19:26:17.390Z,10.80
2019-04-07T19:28:50.196Z,11.37
2019-04-07T19:31:38.347Z,10.10
2019-04-07T19:34:29.437Z,8.50
2019-04-07T19:37:17.952Z,7.70
2019-04-07T19:40:04.658Z,7.23
2019-04-07T19:42:39.930Z,5.00
2019-04-07T19:45:22.188Z,5.13
2019-04-07T19:47:54.870Z,5.37
2019-04-07T19:50:43.040Z,5.47
2019-04-07T19:53:32.542Z,9.70
2019-04-07T19:56:10.194Z,7.63
2019-04-07T19:58:51.401Z,7.83
2019-04-07T20:01:38.328Z,9.63
2019-04-07T20:04:10.979Z,8.13
2019-04-07T20:06:44.081Z,7.10
2019-04-07T20:09:21.833Z,9.47
2019-04-07T20:11:56.279Z,8.90
2019-04-07T20:14:49.298Z,8.17
2019-04-07T20:17:34.447Z,8.90
2019-04-07T20:20:20.075Z,8.00
2019-04-07T20:23:04.378Z,7.77
2019-04-07T20:25:52.764Z,7.50
2019-04-07T20:28:32.459Z,8.30
2019-04-07T20:31:06.579Z,8.03
2019-04-07T20:33:54.525Z,7.40
2019-04-07T20:36:31.804Z,8.33
2019-04-07T20:39:21.694Z,9.27
2019-04-07T20:42:11.417Z,10.13
2019-04-07T20:44:42.650Z,22.40
2019-04-07T20:47:14.318Z,14.20
2019-04-07T20:49:48.134Z,18.00
2019-04-07T20:52:22.239Z,16.70
2019-04-07T20:54:52.315Z,12.93
2019-04-07T20:57:25.297Z,12.23
2019-04-07T21:00:14.350Z,12.17
2019-04-07T21:02:45.942Z,11.87
2019-04-07T21:05:17.527Z,13.67
2019-04-07T21:08:06.186Z,10.93
2019-04-07T21:10:47.238Z,10.40
2019-04-07T21:13:19.374Z,10.03
2019-04-07T21:16:08.200Z,10.50
2019-04-07T21:18:55.021Z,12.90
2019-04-07T21:21:44.567Z,11.23
2019-04-07T21:24:27.977Z,9.37
2019-04-07T21:27:02.557Z,11.67
2019-04-07T21:29:34.483Z,11.70
2019-04-07T21:32:09.486Z,12.77
2019-04-07T21:34:51.633Z,11.80
2019-04-07T21:37:23.350Z,11.13
2019-04-07T21:39:55.680Z,14.73
2019-04-07T21:42:27.723Z,17.83
2019-04-07T21:45:05.813Z,23.70
2019-04-07T21:47:38.583Z,19.63
2019-04-07T21:50:12.329Z,20.03
2019-04-07T21:52:43.817Z,20.13
2019-04-07T21:55:31.230Z,21.03
2019-04-07T21:58:21.849Z,23.73
2019-04-07T22:01:05.933Z,24.03
2019-04-07T22:03:47.832Z,23.47
2019-04-07T22:06:31.117Z,22.57
2019-04-07T22:09:23.132Z,23.17
2019-04-07T22:11:54.681Z,25.27
2019-04-07T22:14:24.865Z,24.87
2019-04-07T22:16:54.806Z,23.80
2019-04-07T22:19:24.698Z,25.57
2019-04-07T22:21:56.718Z,23.93
2019-04-07T22:24:26.397Z,25.50
2019-04-07T22:26:57.166Z,24.40
2019-04-07T22:29:27.394Z,23.07
2019-04-07T22:31:59.803Z,23.03
2019-04-07T22:34:32.778Z,23.47
2019-04-07T22:37:02.615Z,22.33
2019-04-07T22:39:33.351Z,21.23
2019-04-07T22:42:03.549Z,22.10
2019-04-07T22:44:33.603Z,21.93
2019-04-07T22:47:03.767Z,21.37
2019-04-07T22:49:33.681Z,21.37
2019-04-07T22:52:03.696Z,21.67
2019-04-07T22:54:34.840Z,21.87
2019-04-07T22:57:08.163Z,22.40
2019-04-07T22:59:37.659Z,22.83
2019-04-07T23:02:07.869Z,23.00
2019-04-07T23:04:38.488Z,22.63
2019-04-07T23:07:08.745Z,22.57
2019-04-07T23:09:39.062Z,22.20
2019-04-07T23:12:09.190Z,22.67
2019-04-07T23:14:38.986Z,22.27
2019-04-07T23:17:09.891Z,23.73
2019-04-07T23:19:40.110Z,22.33
2019-04-07T23:22:10.023Z,24.90
2019-04-07T23:24:40.036Z,24.33
2019-04-07T23:27:10.438Z,23.03
2019-04-07T23:29:40.452Z,23.60
2019-04-07T23:32:11.675Z,22.23
2019-04-07T23:34:41.853Z,23.37
2019-04-07T23:37:12.648Z,24.07
2019-04-07T23:39:42.858Z,22.27
2019-04-07T23:42:12.772Z,24.07
2019-04-07T23:44:43.669Z,22.03
2019-04-07T23:47:13.876Z,22.20
2019-04-07T23:49:44.741Z,23.13
2019-04-07T23:52:14.686Z,23.30
2019-04-07T23:54:44.599Z,23.10
2019-04-07T23:57:15.393Z,21.80
2019-04-07T23:59:47.027Z,21.23
